Batesland, South Dakota
Current Conditions -  °F | °C
As of 3:52 PM on Friday 19 Dec 2014 (Local Time) from KIEN Reporting Station
Clear Clear  
Wind Chill: 32°   Ceiling: Unl
Heat Index: 37°   Visibility: 10mi
Dew Point: 23°   Wind: 6mph
Humidity: 57%   Direction: 240°WSW
Pressure: 29.97"   Gusts: NA
Location:  43.13°N, 102.1°W
Report Text: KIEN 192252Z AUTO 24005KT 10SM CLR 03/M05 A2997 RMK AO2 SLP175 T00281050
Loading
Personal Weather Stations






























Interactive Weather Map New forecast layout! Learn more

10-Day Weather Forecast

Advertisements
Track Severe Weather on mobile